Hauptseite
METAR-TAF:

METAR-TAF

Flughäfen :

Alice Springs, Australien

Flughafen Alice Springs

Breite: 23-48S, Länge: 133-53E, Höhe: 545 m

Beobachtung

Neuester Wetterbericht von vor 16 Minuten, um 13:30 UTC
Wind 7 kt aus Südost
Temperatur 30°C
Luftfeuchtigkeit 25%
Luftdruck 1014 hPa
Sichtweite 10 km oder mehr

METAR: YBAS 281330Z AUTO 13007KT 9999 // NCD 30/08 Q1014 RF00.0/000.0

Zeit: 23:16 (13:46 UTC)

Prognose

Neuester Wetterbericht von vor 2 Stunden und 18 Minuten, um 11:28 UTC
Gültige Prognose vom 28 um 12 UTC bis 29 um 12 UTC
Wind 10 kt aus Südost
Sichtweite 10 km oder mehr
keine Wolken unter 1500 m und keine Kumulonimbus oder Gewitterwolken

TAF: YBAS 281128Z 2812/2912 14010KT CAVOK

Wetterbeobachtungen und Prognosen von mehr als 4000 Flughäfen (METAR und TAF Bericht).

Die verfügbaren Stationen werden durch gelbe und rote Markierungen auf der Karte dargestellt.

Führen Sie die Maus auf sie, um den Namen der Station zu sehen.

Darauf klicken, um die Beobachtung von Wetterbeobachtungen und Prognosen zu sehen.

Um die Karte zu ändern : klicken Sie auf den grünen Tasten mit einem schwarzen Kreuz Zum Vergrößern, auf den grünen Button mit einem Gedankenstrich zu verkleinern, oder auf die grünen Pfeile für benachbarte Karten.


METAR-TAF: